createdAt,value
2023-03-05T00:01:54.741Z,3.60
2023-03-05T00:04:25.088Z,3.75
2023-03-05T00:06:55.916Z,3.50
2023-03-05T00:09:25.891Z,3.47
2023-03-05T00:11:53.488Z,3.60
2023-03-05T00:14:24.296Z,3.80
2023-03-05T00:16:51.587Z,3.67
2023-03-05T00:19:21.724Z,3.73
2023-03-05T00:21:48.945Z,4.00
2023-03-05T00:24:29.771Z,3.70
2023-03-05T00:27:04.493Z,4.50
2023-03-05T00:29:31.857Z,4.60
2023-03-05T00:32:01.836Z,3.57
2023-03-05T00:34:29.721Z,4.10
2023-03-05T00:37:07.716Z,4.60
2023-03-05T00:39:49.465Z,4.87
2023-03-05T00:42:28.554Z,3.97
2023-03-05T00:44:57.476Z,4.40
2023-03-05T00:47:26.079Z,4.87
2023-03-05T00:49:56.919Z,4.37
2023-03-05T00:52:24.371Z,4.87
2023-03-05T00:54:51.462Z,4.70
2023-03-05T00:57:18.501Z,4.73
2023-03-05T00:59:45.849Z,4.70
2023-03-05T01:02:15.583Z,4.82
2023-03-05T01:04:45.926Z,4.75
2023-03-05T01:07:18.407Z,5.12
2023-03-05T01:09:45.704Z,4.43
2023-03-05T01:12:12.954Z,5.07
2023-03-05T01:14:39.869Z,5.28
2023-03-05T01:17:08.088Z,4.65
2023-03-05T01:19:40.827Z,5.25
2023-03-05T01:22:08.122Z,4.37
2023-03-05T01:24:35.596Z,3.95
2023-03-05T01:27:05.526Z,5.25
2023-03-05T01:29:40.616Z,4.97
2023-03-05T01:32:11.859Z,4.72
2023-03-05T01:34:42.188Z,4.23
2023-03-05T01:37:09.843Z,4.68
2023-03-05T01:39:46.297Z,4.82
2023-03-05T01:42:13.386Z,4.12
2023-03-05T01:45:04.688Z,4.70
2023-03-05T01:47:33.110Z,5.30
2023-03-05T01:50:00.614Z,4.57
2023-03-05T01:52:35.437Z,5.12
2023-03-05T01:55:10.682Z,4.35
2023-03-05T01:57:47.464Z,5.25
2023-03-05T02:00:47.350Z,4.73
2023-03-05T02:03:22.569Z,4.35
2023-03-05T02:05:49.952Z,4.62
2023-03-05T02:11:08.928Z,4.72
2023-03-05T02:13:40.464Z,4.80
2023-03-05T02:16:10.727Z,4.90
2023-03-05T02:18:50.480Z,4.82
2023-03-05T02:21:32.053Z,4.93
2023-03-05T02:23:59.026Z,4.45
2023-03-05T02:26:25.920Z,5.27
2023-03-05T02:29:08.587Z,4.62
2023-03-05T02:31:48.772Z,4.55
2023-03-05T02:34:33.668Z,4.53
2023-03-05T02:37:02.636Z,4.10
2023-03-05T02:39:29.616Z,4.40
2023-03-05T02:41:56.643Z,4.43
2023-03-05T02:44:23.678Z,4.32
2023-03-05T02:46:50.575Z,4.85
2023-03-05T02:49:17.476Z,4.50
2023-03-05T02:51:44.377Z,4.30
2023-03-05T02:54:11.363Z,5.00
2023-03-05T02:56:39.668Z,4.30
2023-03-05T02:59:06.501Z,4.80
2023-03-05T03:01:33.878Z,4.60
2023-03-05T03:04:00.954Z,4.50
2023-03-05T03:06:28.010Z,3.92
2023-03-05T03:08:55.030Z,4.45
2023-03-05T03:11:21.976Z,4.18
2023-03-05T03:13:48.891Z,4.30
2023-03-05T03:16:16.652Z,4.20
2023-03-05T03:18:44.487Z,4.22
2023-03-05T03:21:18.427Z,4.57
2023-03-05T03:23:45.357Z,4.87
2023-03-05T03:26:12.236Z,3.95
2023-03-05T03:28:39.268Z,4.10
2023-03-05T03:31:06.345Z,4.60
2023-03-05T03:33:33.270Z,4.30
2023-03-05T03:36:00.479Z,4.22
2023-03-05T03:38:27.870Z,4.18
2023-03-05T03:40:54.820Z,4.03
2023-03-05T03:43:21.800Z,4.65
2023-03-05T03:45:48.726Z,4.93
2023-03-05T03:48:15.648Z,4.35
2023-03-05T03:50:43.029Z,4.53
2023-03-05T03:53:14.232Z,4.30
2023-03-05T03:55:42.952Z,4.45
2023-03-05T03:58:15.004Z,4.82
2023-03-05T04:00:42.360Z,4.00
2023-03-05T04:03:09.388Z,4.37
2023-03-05T04:05:36.387Z,4.27
2023-03-05T04:08:03.544Z,3.95
2023-03-05T04:10:30.433Z,4.32
2023-03-05T04:12:57.302Z,4.28
2023-03-05T04:15:25.043Z,4.45
2023-03-05T04:17:52.033Z,4.40
2023-03-05T04:20:19.105Z,4.22
2023-03-05T04:22:46.018Z,3.53
2023-03-05T04:25:12.898Z,4.25
2023-03-05T04:27:40.443Z,3.85
2023-03-05T04:30:11.694Z,3.70
2023-03-05T04:32:38.744Z,3.78
2023-03-05T04:35:05.851Z,4.05
2023-03-05T04:37:32.800Z,4.35
2023-03-05T04:39:59.888Z,3.80
2023-03-05T04:42:26.780Z,4.23
2023-03-05T04:44:53.670Z,4.37
2023-03-05T04:47:20.624Z,4.15
2023-03-05T04:49:47.565Z,4.35
2023-03-05T04:52:15.235Z,3.80
2023-03-05T04:54:42.133Z,3.87
2023-03-05T04:57:09.144Z,3.85
2023-03-05T04:59:37.703Z,4.75
2023-03-05T05:02:05.046Z,3.78
2023-03-05T05:04:32.080Z,3.87
2023-03-05T05:06:59.094Z,3.93
2023-03-05T05:09:26.595Z,3.80
2023-03-05T05:11:53.915Z,3.70
2023-03-05T05:14:20.845Z,4.15
2023-03-05T05:16:47.797Z,3.60
2023-03-05T05:19:14.711Z,4.10
2023-03-05T05:21:42.521Z,4.32
2023-03-05T05:24:09.386Z,3.87
2023-03-05T05:26:36.253Z,4.15
2023-03-05T05:29:08.846Z,3.97
2023-03-05T05:31:36.158Z,4.07
2023-03-05T05:34:03.142Z,3.28
2023-03-05T05:36:30.125Z,3.33
2023-03-05T05:38:57.307Z,3.50
2023-03-05T05:41:24.992Z,3.60
2023-03-05T05:43:51.913Z,4.07
2023-03-05T05:46:20.519Z,3.60
2023-03-05T05:48:48.518Z,3.92
2023-03-05T05:51:18.815Z,3.60
2023-03-05T05:53:46.462Z,4.00
2023-03-05T05:56:14.906Z,3.60
2023-03-05T05:58:42.519Z,3.87
2023-03-05T06:01:23.471Z,4.00
2023-03-05T06:03:50.603Z,4.00
2023-03-05T06:06:19.988Z,3.70
2023-03-05T06:08:47.507Z,3.93
2023-03-05T06:11:16.729Z,3.53
2023-03-05T06:13:45.133Z,3.92
2023-03-05T06:16:16.037Z,4.07
2023-03-05T06:18:43.434Z,4.87
2023-03-05T06:21:16.461Z,4.60
2023-03-05T06:23:44.669Z,4.43
2023-03-05T06:26:13.675Z,4.18
2023-03-05T06:28:41.377Z,5.12
2023-03-05T06:31:09.890Z,4.43
2023-03-05T06:33:37.500Z,5.13
2023-03-05T06:36:07.464Z,5.35
2023-03-05T06:38:35.533Z,4.65
2023-03-05T06:41:11.790Z,5.37
2023-03-05T06:43:41.595Z,4.45
2023-03-05T06:46:29.081Z,5.03
2023-03-05T06:48:58.790Z,5.10
2023-03-05T06:51:37.666Z,4.53
2023-03-05T06:54:15.765Z,4.82
2023-03-05T06:56:46.753Z,4.95
2023-03-05T06:59:15.944Z,5.60
2023-03-05T07:01:44.021Z,5.60
2023-03-05T07:04:13.061Z,5.12
2023-03-05T07:06:42.203Z,5.40
2023-03-05T07:09:13.644Z,5.40
2023-03-05T07:11:40.819Z,5.13
2023-03-05T07:14:07.882Z,5.05
2023-03-05T07:16:35.535Z,5.35
2023-03-05T07:19:05.492Z,5.70
2023-03-05T07:21:34.980Z,4.60
2023-03-05T07:24:04.936Z,4.93
2023-03-05T07:26:33.615Z,4.93
2023-03-05T07:29:01.754Z,5.00
2023-03-05T07:31:31.524Z,5.07
2023-03-05T07:34:00.714Z,5.43
2023-03-05T07:36:28.456Z,4.57
2023-03-05T07:38:55.485Z,5.25
2023-03-05T07:41:23.667Z,4.85
2023-03-05T07:43:53.089Z,5.65
2023-03-05T07:46:25.174Z,5.35
2023-03-05T07:48:54.697Z,4.90
2023-03-05T07:51:23.346Z,5.12
2023-03-05T07:53:51.814Z,4.53
2023-03-05T07:56:24.393Z,4.68
2023-03-05T07:58:51.754Z,5.30
2023-03-05T08:01:19.052Z,4.60
2023-03-05T08:03:46.024Z,4.62
2023-03-05T08:06:13.091Z,4.97
2023-03-05T08:08:40.217Z,5.43
2023-03-05T08:11:10.468Z,4.32
2023-03-05T08:13:38.240Z,4.50
2023-03-05T08:16:10.167Z,3.95
2023-03-05T08:18:37.422Z,4.18
2023-03-05T08:21:04.987Z,4.20
2023-03-05T08:23:34.580Z,5.00
2023-03-05T08:26:01.587Z,4.13
2023-03-05T08:28:28.789Z,3.97
2023-03-05T08:30:55.727Z,4.18
2023-03-05T08:33:22.622Z,5.03
2023-03-05T08:35:49.473Z,6.85
2023-03-05T08:38:16.382Z,4.80
2023-03-05T08:40:43.707Z,4.30
2023-03-05T08:43:10.557Z,4.80
2023-03-05T08:45:39.313Z,6.50
2023-03-05T08:48:06.446Z,8.90
2023-03-05T08:50:33.349Z,5.83
2023-03-05T08:53:00.865Z,7.30
2023-03-05T08:55:27.866Z,15.02
2023-03-05T08:57:54.769Z,7.18
2023-03-05T09:00:22.042Z,8.30
2023-03-05T09:02:48.903Z,6.07
2023-03-05T09:05:16.152Z,5.07
2023-03-05T09:07:43.373Z,8.32
2023-03-05T09:10:12.715Z,5.82
2023-03-05T09:12:39.776Z,6.35
2023-03-05T09:15:08.456Z,6.47
2023-03-05T09:17:37.018Z,6.80
2023-03-05T09:20:06.425Z,11.55
2023-03-05T09:22:33.547Z,11.60
2023-03-05T09:25:00.442Z,7.37
2023-03-05T09:27:27.280Z,13.90
2023-03-05T09:29:54.270Z,10.63
2023-03-05T09:32:21.509Z,7.68
2023-03-05T09:34:48.709Z,7.93
2023-03-05T09:37:15.569Z,7.72
2023-03-05T09:39:42.437Z,7.23
2023-03-05T09:42:39.399Z,8.88
2023-03-05T09:45:28.542Z,10.68
2023-03-05T09:48:14.261Z,9.85
2023-03-05T09:50:45.029Z,6.07
2023-03-05T09:53:27.163Z,6.63
2023-03-05T09:55:57.811Z,5.85
2023-03-05T09:58:45.067Z,7.57
2023-03-05T10:01:18.810Z,8.23
2023-03-05T10:04:12.486Z,5.95
2023-03-05T10:07:08.832Z,7.03
2023-03-05T10:09:44.888Z,5.40
2023-03-05T10:12:39.025Z,5.07
2023-03-05T10:15:11.612Z,6.55
2023-03-05T10:18:01.454Z,6.28
2023-03-05T10:20:46.106Z,5.10
2023-03-05T10:23:24.781Z,5.50
2023-03-05T10:26:10.585Z,6.15
2023-03-05T10:29:17.672Z,6.12
2023-03-05T10:32:05.758Z,6.25
2023-03-05T10:35:07.742Z,6.13
2023-03-05T10:37:47.354Z,4.80
2023-03-05T10:40:40.005Z,4.72
2023-03-05T10:43:22.358Z,5.68
2023-03-05T10:45:52.482Z,5.70
2023-03-05T10:48:31.392Z,9.23
2023-03-05T10:51:03.774Z,5.05
2023-03-05T10:53:56.706Z,6.30
2023-03-05T10:56:28.061Z,4.60
2023-03-05T10:58:55.169Z,7.00
2023-03-05T11:01:26.322Z,5.10
2023-03-05T11:04:36.740Z,4.43
2023-03-05T11:07:35.310Z,4.57
2023-03-05T11:10:06.974Z,4.00
2023-03-05T11:12:38.939Z,2.58
2023-03-05T11:15:06.352Z,2.60
2023-03-05T11:17:35.318Z,1.77
2023-03-05T11:20:29.928Z,1.95
2023-03-05T11:23:06.016Z,2.58
2023-03-05T11:25:34.938Z,2.17
2023-03-05T11:28:04.023Z,3.30
2023-03-05T11:30:35.456Z,3.50
2023-03-05T11:33:20.659Z,4.07
2023-03-05T11:35:49.478Z,2.65
2023-03-05T11:38:28.196Z,4.07
2023-03-05T11:40:57.330Z,3.97
2023-03-05T11:43:26.095Z,4.72
2023-03-05T11:46:03.794Z,4.20
2023-03-05T11:48:37.046Z,3.72
2023-03-05T11:51:29.404Z,5.35
2023-03-05T11:54:05.606Z,4.70
2023-03-05T11:56:36.947Z,4.32
2023-03-05T11:59:19.123Z,4.53
2023-03-05T12:01:55.374Z,4.15
2023-03-05T12:04:23.923Z,4.35
2023-03-05T12:07:02.884Z,4.43
2023-03-05T12:09:51.882Z,4.35
2023-03-05T12:12:53.062Z,4.45
2023-03-05T12:15:32.301Z,4.00
2023-03-05T12:17:59.567Z,4.05
2023-03-05T12:20:41.181Z,4.07
2023-03-05T12:23:15.076Z,4.18
2023-03-05T12:25:51.344Z,4.43
2023-03-05T12:28:37.054Z,5.45
2023-03-05T12:31:11.380Z,3.65
2023-03-05T12:33:44.440Z,4.10
2023-03-05T12:36:17.234Z,4.28
2023-03-05T12:38:46.429Z,2.83
2023-03-05T12:41:22.449Z,3.17
2023-03-05T12:44:08.002Z,3.22
2023-03-05T12:46:39.711Z,3.73
2023-03-05T12:49:20.457Z,3.67
2023-03-05T12:51:53.601Z,3.70
2023-03-05T12:54:33.614Z,3.28
2023-03-05T12:57:05.373Z,3.15
2023-03-05T13:00:00.300Z,2.80
2023-03-05T13:02:32.259Z,2.62
2023-03-05T13:05:04.578Z,2.90
2023-03-05T13:07:32.195Z,2.75
2023-03-05T13:10:00.619Z,3.30
2023-03-05T13:12:30.091Z,3.20
2023-03-05T13:15:09.711Z,3.30
2023-03-05T13:17:51.481Z,2.70
2023-03-05T13:20:42.862Z,3.28
2023-03-05T13:23:23.752Z,2.67
2023-03-05T13:26:00.403Z,2.30
2023-03-05T13:28:28.640Z,2.97
2023-03-05T13:31:11.353Z,2.25
2023-03-05T13:33:39.282Z,2.10
2023-03-05T13:36:07.420Z,1.95
2023-03-05T13:38:46.821Z,2.10
2023-03-05T13:41:15.037Z,2.35
2023-03-05T13:43:49.424Z,2.17
2023-03-05T13:46:35.777Z,2.10
2023-03-05T13:49:23.963Z,1.60
2023-03-05T13:51:55.193Z,2.20
2023-03-05T13:54:25.558Z,2.17
2023-03-05T13:57:02.034Z,1.65
2023-03-05T13:59:32.389Z,1.85
2023-03-05T14:02:21.457Z,1.60
2023-03-05T14:04:49.199Z,1.37
2023-03-05T14:07:33.611Z,1.60
2023-03-05T14:10:01.389Z,2.20
2023-03-05T14:12:42.993Z,2.15
2023-03-05T14:15:29.483Z,1.23
2023-03-05T14:18:12.306Z,1.27
2023-03-05T14:20:41.455Z,1.50
2023-03-05T14:23:47.888Z,1.20
2023-03-05T14:26:19.195Z,2.40
2023-03-05T14:29:02.387Z,2.85
2023-03-05T14:31:33.418Z,1.80
2023-03-05T14:34:04.891Z,1.90
2023-03-05T14:36:34.378Z,1.80
2023-03-05T14:39:02.292Z,1.40
2023-03-05T14:41:39.226Z,1.73
2023-03-05T14:44:12.978Z,1.60
2023-03-05T14:46:41.211Z,1.58
2023-03-05T14:49:09.290Z,1.58
2023-03-05T14:51:43.279Z,1.40
2023-03-05T14:54:25.355Z,1.30
2023-03-05T14:56:53.485Z,1.63
2023-03-05T14:59:22.306Z,1.60
2023-03-05T15:01:51.481Z,1.70
2023-03-05T15:04:20.407Z,1.33
2023-03-05T15:06:51.398Z,1.80
2023-03-05T15:09:20.498Z,1.57
2023-03-05T15:11:48.807Z,1.40
2023-03-05T15:14:16.620Z,1.75
2023-03-05T15:16:46.224Z,1.80
2023-03-05T15:19:14.260Z,1.85
2023-03-05T15:21:42.924Z,1.77
2023-03-05T15:24:11.469Z,1.70
2023-03-05T15:26:39.513Z,2.97
2023-03-05T15:29:07.736Z,2.10
2023-03-05T15:31:39.122Z,1.95
2023-03-05T15:34:07.460Z,2.57
2023-03-05T15:36:35.005Z,1.60
2023-03-05T15:39:02.850Z,1.73
2023-03-05T15:41:31.512Z,1.40
2023-03-05T15:44:00.645Z,1.80
2023-03-05T15:46:30.516Z,2.10
2023-03-05T15:48:58.816Z,1.50
2023-03-05T15:51:26.770Z,1.85
2023-03-05T15:53:54.892Z,2.05
2023-03-05T15:56:22.456Z,1.95
2023-03-05T15:58:54.421Z,2.10
2023-03-05T16:01:24.123Z,1.70
2023-03-05T16:03:53.642Z,2.00
2023-03-05T16:06:24.052Z,2.40
2023-03-05T16:08:56.080Z,2.15
2023-03-05T16:11:24.257Z,2.10
2023-03-05T16:13:52.584Z,2.30
2023-03-05T16:16:22.207Z,2.17
2023-03-05T16:18:55.381Z,2.67
2023-03-05T16:21:22.937Z,1.90
2023-03-05T16:23:50.830Z,2.10
2023-03-05T16:26:19.003Z,1.98
2023-03-05T16:28:46.869Z,2.50
2023-03-05T16:31:14.979Z,1.90
2023-03-05T16:33:44.214Z,2.40
2023-03-05T16:36:12.049Z,2.30
2023-03-05T16:38:41.488Z,1.70
2023-03-05T16:41:10.417Z,1.77
2023-03-05T16:43:41.136Z,1.77
2023-03-05T16:46:22.825Z,1.60
2023-03-05T16:48:50.572Z,1.90
2023-03-05T16:51:20.796Z,1.80
2023-03-05T16:53:49.408Z,1.75
2023-03-05T16:56:17.785Z,1.80
2023-03-05T16:58:46.928Z,2.37
2023-03-05T17:01:19.798Z,1.20
2023-03-05T17:03:50.711Z,1.48
2023-03-05T17:06:35.654Z,1.70
2023-03-05T17:09:05.578Z,1.87
2023-03-05T17:11:33.496Z,1.20
2023-03-05T17:14:01.473Z,1.43
2023-03-05T17:16:29.476Z,1.23
2023-03-05T17:18:57.652Z,1.50
2023-03-05T17:21:26.983Z,1.58
2023-03-05T17:23:55.633Z,1.50
2023-03-05T17:26:23.620Z,1.57
2023-03-05T17:28:54.448Z,1.50
2023-03-05T17:31:22.618Z,1.80
2023-03-05T17:33:51.391Z,1.85
2023-03-05T17:36:21.131Z,1.40
2023-03-05T17:38:53.806Z,1.60
2023-03-05T17:41:23.717Z,2.45
2023-03-05T17:43:51.814Z,1.77
2023-03-05T17:46:19.860Z,1.70
2023-03-05T17:48:47.707Z,1.60
2023-03-05T17:51:16.898Z,1.30
2023-03-05T17:53:46.445Z,1.48
2023-03-05T17:56:17.798Z,1.60
2023-03-05T17:58:45.694Z,2.42
2023-03-05T18:01:23.123Z,2.85
2023-03-05T18:03:51.674Z,3.10
2023-03-05T18:06:20.148Z,2.58
2023-03-05T18:08:48.066Z,2.85
2023-03-05T18:11:16.650Z,2.50
2023-03-05T18:13:45.458Z,2.08
2023-03-05T18:16:17.430Z,1.83
2023-03-05T18:18:45.799Z,2.30
2023-03-05T18:21:13.438Z,2.22
2023-03-05T18:23:40.632Z,2.00
2023-03-05T18:26:09.670Z,2.28
2023-03-05T18:28:37.317Z,2.07
2023-03-05T18:31:05.311Z,3.25
2023-03-05T18:33:33.476Z,2.87
2023-03-05T18:36:02.441Z,3.10
2023-03-05T18:38:32.131Z,2.40
2023-03-05T18:41:03.424Z,2.30
2023-03-05T18:43:31.269Z,2.00
2023-03-05T18:45:59.711Z,2.62
2023-03-05T18:48:27.863Z,2.75
2023-03-05T18:51:02.086Z,2.47
2023-03-05T18:53:29.886Z,3.27
2023-03-05T18:55:57.731Z,3.30
2023-03-05T18:58:26.234Z,3.10
2023-03-05T19:00:55.171Z,2.72
2023-03-05T19:03:24.556Z,2.90
2023-03-05T19:05:53.309Z,2.70
2023-03-05T19:08:21.907Z,3.72
2023-03-05T19:10:49.235Z,3.25
2023-03-05T19:13:42.305Z,2.90
2023-03-05T19:16:30.837Z,2.47
2023-03-05T19:19:32.001Z,3.07
2023-03-05T19:22:00.584Z,2.50
2023-03-05T19:24:31.093Z,2.72
2023-03-05T19:27:01.650Z,2.35
2023-03-05T19:29:34.109Z,2.20
2023-03-05T19:32:02.430Z,2.23
2023-03-05T19:34:31.195Z,2.35
2023-03-05T19:36:59.583Z,1.67
2023-03-05T19:39:29.545Z,1.77
2023-03-05T19:41:57.858Z,1.80
2023-03-05T19:44:25.991Z,2.07
2023-03-05T19:46:55.470Z,2.45
2023-03-05T19:49:23.104Z,2.78
2023-03-05T19:51:51.485Z,2.72
2023-03-05T19:54:21.144Z,3.00
2023-03-05T19:56:51.146Z,3.17
2023-03-05T19:59:23.474Z,2.85
2023-03-05T20:01:54.904Z,3.42
2023-03-05T20:04:24.353Z,3.50
2023-03-05T20:06:52.574Z,3.97
2023-03-05T20:09:22.232Z,3.70
2023-03-05T20:11:51.707Z,3.85
2023-03-05T20:14:21.200Z,3.45
2023-03-05T20:16:49.099Z,3.55
2023-03-05T20:19:20.459Z,3.25
2023-03-05T20:21:48.569Z,3.97
2023-03-05T20:24:19.899Z,3.50
2023-03-05T20:26:49.965Z,3.95
2023-03-05T20:29:19.346Z,4.28
2023-03-05T20:31:47.773Z,3.85
2023-03-05T20:34:18.080Z,4.03
2023-03-05T20:36:49.997Z,4.10
2023-03-05T20:39:19.176Z,4.53
2023-03-05T20:41:47.480Z,3.87
2023-03-05T20:44:17.221Z,3.80
2023-03-05T20:47:03.062Z,4.00
2023-03-05T20:49:30.811Z,3.87
2023-03-05T20:51:58.724Z,4.12
2023-03-05T20:54:27.974Z,3.67
2023-03-05T20:56:55.792Z,3.72
2023-03-05T20:59:28.984Z,3.63
2023-03-05T21:01:57.047Z,3.62
2023-03-05T21:04:24.965Z,3.67
2023-03-05T21:06:55.297Z,3.25
2023-03-05T21:09:22.735Z,3.08
2023-03-05T21:11:50.273Z,3.53
2023-03-05T21:14:18.074Z,3.90
2023-03-05T21:16:45.915Z,3.35
2023-03-05T21:19:14.084Z,3.03
2023-03-05T21:21:45.722Z,3.10
2023-03-05T21:24:13.261Z,3.07
2023-03-05T21:26:40.852Z,3.78
2023-03-05T21:29:09.039Z,3.40
2023-03-05T21:31:38.104Z,3.30
2023-03-05T21:34:05.804Z,4.00
2023-03-05T21:36:33.328Z,2.90
2023-03-05T21:39:00.800Z,2.40
2023-03-05T21:41:28.903Z,2.70
2023-03-05T21:43:56.269Z,2.60
2023-03-05T21:46:23.216Z,2.15
2023-03-05T21:48:50.529Z,2.07
2023-03-05T21:51:17.440Z,2.08
2023-03-05T21:53:44.525Z,1.95
2023-03-05T21:56:18.492Z,2.20
2023-03-05T21:58:46.058Z,1.70
2023-03-05T22:01:14.931Z,2.37
2023-03-05T22:03:42.474Z,2.25
2023-03-05T22:06:10.841Z,1.80
2023-03-05T22:08:37.936Z,2.03
2023-03-05T22:11:10.152Z,2.30
2023-03-05T22:13:37.881Z,2.33
2023-03-05T22:16:06.037Z,1.87
2023-03-05T22:18:33.757Z,2.20
2023-03-05T22:21:01.286Z,2.70
2023-03-05T22:23:31.401Z,3.28
2023-03-05T22:26:01.070Z,2.50
2023-03-05T22:28:28.711Z,2.72
2023-03-05T22:30:56.075Z,2.80
2023-03-05T22:33:23.358Z,2.50
2023-03-05T22:35:50.860Z,2.47
2023-03-05T22:38:18.485Z,2.53
2023-03-05T22:40:47.692Z,2.95
2023-03-05T22:43:15.959Z,2.40
2023-03-05T22:45:43.098Z,2.33
2023-03-05T22:48:11.292Z,2.80
2023-03-05T22:50:39.566Z,2.63
2023-03-05T22:53:06.991Z,2.67
2023-03-05T22:55:34.075Z,3.20
2023-03-05T22:58:00.893Z,2.55
2023-03-05T23:00:27.890Z,2.87
2023-03-05T23:02:55.009Z,2.77
2023-03-05T23:05:21.964Z,3.00
2023-03-05T23:07:49.382Z,2.92
2023-03-05T23:10:23.473Z,2.70
2023-03-05T23:12:53.745Z,2.25
2023-03-05T23:15:32.473Z,3.00
2023-03-05T23:17:59.924Z,2.78
2023-03-05T23:20:30.464Z,2.92
2023-03-05T23:22:57.899Z,3.12
2023-03-05T23:25:28.091Z,2.42
2023-03-05T23:27:55.760Z,2.83
2023-03-05T23:30:30.621Z,3.05
2023-03-05T23:32:58.733Z,3.20
2023-03-05T23:35:41.112Z,2.70
2023-03-05T23:38:13.454Z,2.80
2023-03-05T23:40:48.963Z,2.93
2023-03-05T23:43:18.653Z,2.60
2023-03-05T23:45:48.544Z,3.08
2023-03-05T23:48:17.246Z,2.67
2023-03-05T23:50:47.972Z,3.30
2023-03-05T23:53:18.017Z,3.07
2023-03-05T23:55:45.161Z,2.90
2023-03-05T23:58:12.729Z,3.17
